TimeCDT,TemperatureF,Dew PointF,Humidity,Sea Level PressureIn,VisibilityMPH,Wind Direction,Wind SpeedMPH,Gust SpeedMPH,PrecipitationIn,Events,Conditions,WindDirDegrees,DateUTC
12:52 AM,61.0,53.1,75,30.05,10.0,Calm,Calm,-,N/A,,Overcast,0,2012-10-04 05:52:00
1:52 AM,61.0,54.0,78,30.06,10.0,South,5.8,-,N/A,,Overcast,180,2012-10-04 06:52:00
2:52 AM,59.0,54.0,83,30.07,10.0,South,9.2,-,N/A,,Partly Cloudy,190,2012-10-04 07:52:00
3:52 AM,57.0,53.1,87,30.08,10.0,South,4.6,-,N/A,,Clear,180,2012-10-04 08:52:00
4:52 AM,57.0,53.1,87,30.08,10.0,South,6.9,-,N/A,,Clear,180,2012-10-04 09:52:00
5:52 AM,57.0,53.1,87,30.08,10.0,South,6.9,-,N/A,,Clear,190,2012-10-04 10:52:00
6:52 AM,57.0,53.1,87,30.09,10.0,SSW,8.1,-,N/A,,Clear,200,2012-10-04 11:52:00
7:52 AM,59.0,54.0,83,30.11,10.0,SSW,8.1,-,N/A,,Clear,210,2012-10-04 12:52:00
8:52 AM,64.0,55.0,73,30.11,10.0,SW,10.4,-,N/A,,Clear,220,2012-10-04 13:52:00
9:52 AM,70.0,55.9,61,30.10,10.0,SW,10.4,17.3,N/A,,Clear,220,2012-10-04 14:52:00
10:52 AM,73.9,55.0,52,30.09,10.0,SW,13.8,24.2,N/A,,Clear,220,2012-10-04 15:52:00
11:52 AM,77.0,55.0,47,30.07,10.0,SW,13.8,20.7,N/A,,Clear,230,2012-10-04 16:52:00
12:52 PM,79.0,54.0,42,30.06,10.0,WSW,17.3,-,N/A,,Partly Cloudy,240,2012-10-04 17:52:00
1:52 PM,82.0,54.0,38,30.06,10.0,West,18.4,24.2,N/A,,Scattered Clouds,260,2012-10-04 18:52:00
2:52 PM,80.1,55.0,42,30.06,10.0,WSW,17.3,24.2,N/A,,Partly Cloudy,240,2012-10-04 19:52:00
3:52 PM,79.0,55.9,45,30.06,10.0,West,11.5,-,N/A,,Mostly Cloudy,260,2012-10-04 20:52:00
4:52 PM,71.1,51.1,49,30.09,10.0,NNW,18.4,23.0,N/A,,Partly Cloudy,330,2012-10-04 21:52:00
5:52 PM,64.9,48.0,54,30.12,10.0,NW,15.0,-,N/A,,Partly Cloudy,320,2012-10-04 22:52:00
6:52 PM,59.0,46.0,62,30.14,10.0,NW,12.7,-,N/A,,Scattered Clouds,320,2012-10-04 23:52:00
7:52 PM,53.6,44.6,72,30.17,10.0,NW,11.5,20.7,N/A,,Overcast,310,2012-10-05 00:52:00
8:52 PM,52.0,45.0,77,30.19,10.0,NW,10.4,-,N/A,,Overcast,320,2012-10-05 01:52:00
9:43 PM,50.0,46.4,87,30.19,10.0,NW,9.2,-,N/A,Rain,Light Rain,310,2012-10-05 02:43:00
9:46 PM,50.0,46.4,87,30.19,10.0,NW,11.5,-,0.01,Rain,Light Rain,310,2012-10-05 02:46:00
9:52 PM,50.0,46.0,86,30.19,10.0,NNW,10.4,-,0.01,Rain,Light Rain,330,2012-10-05 02:52:00
10:04 PM,50.0,46.4,87,30.19,10.0,NW,4.6,-,0.00,,Overcast,320,2012-10-05 03:04:00
10:52 PM,48.9,46.0,90,30.19,10.0,NW,3.5,-,0.01,,Overcast,310,2012-10-05 03:52:00
11:52 PM,50.0,46.9,89,30.20,10.0,West,4.6,-,0.00,,Overcast,280,2012-10-05 04:52:00